createdAt,value
2024-01-22T00:03:40.064Z,100.00
2024-01-22T00:08:41.972Z,100.00
2024-01-22T00:13:43.852Z,100.00
2024-01-22T00:18:45.834Z,100.00
2024-01-22T00:23:48.000Z,100.00
2024-01-22T00:28:49.798Z,100.00
2024-01-22T00:33:51.703Z,100.00
2024-01-22T00:38:53.450Z,100.00
2024-01-22T00:43:55.237Z,100.00
2024-01-22T00:48:57.070Z,100.00
2024-01-22T00:53:59.544Z,100.00
2024-01-22T00:59:01.719Z,100.00
2024-01-22T01:04:03.701Z,100.00
2024-01-22T01:09:05.519Z,100.00
2024-01-22T01:14:07.238Z,100.00
2024-01-22T01:19:09.094Z,100.00
2024-01-22T01:24:11.032Z,100.00
2024-01-22T01:29:12.879Z,100.00
2024-01-22T01:34:14.879Z,100.00
2024-01-22T01:39:16.724Z,100.00
2024-01-22T01:44:18.504Z,100.00
2024-01-22T01:49:20.403Z,100.00
2024-01-22T01:54:22.310Z,100.00
2024-01-22T01:59:24.819Z,100.00
2024-01-22T02:04:26.580Z,100.00
2024-01-22T02:09:54.979Z,100.00
2024-01-22T02:14:56.819Z,100.00
2024-01-22T02:20:01.444Z,100.00
2024-01-22T02:25:03.677Z,100.00
2024-01-22T02:30:06.026Z,100.00
2024-01-22T02:35:07.811Z,100.00
2024-01-22T02:40:09.755Z,100.00
2024-01-22T02:45:11.924Z,100.00
2024-01-22T02:50:13.910Z,100.00
2024-01-22T02:55:18.900Z,100.00
2024-01-22T03:00:22.856Z,100.00
2024-01-22T03:05:24.831Z,100.00
2024-01-22T03:10:27.448Z,100.00
2024-01-22T03:15:29.246Z,100.00
2024-01-22T03:20:30.955Z,100.00
2024-01-22T03:25:32.735Z,100.00
2024-01-22T03:30:34.502Z,100.00
2024-01-22T03:35:36.254Z,100.00
2024-01-22T03:40:38.057Z,100.00
2024-01-22T03:45:39.829Z,100.00
2024-01-22T03:50:41.627Z,100.00
2024-01-22T03:55:43.423Z,100.00
2024-01-22T04:00:45.197Z,100.00
2024-01-22T04:05:47.093Z,100.00
2024-01-22T04:10:49.078Z,100.00
2024-01-22T04:15:52.070Z,100.00
2024-01-22T04:20:53.917Z,100.00
2024-01-22T04:25:55.710Z,100.00
2024-01-22T04:30:57.468Z,100.00
2024-01-22T04:35:59.296Z,100.00
2024-01-22T04:41:01.159Z,100.00
2024-01-22T04:46:03.874Z,100.00
2024-01-22T04:51:05.968Z,100.00
2024-01-22T04:56:07.959Z,100.00
2024-01-22T05:01:13.061Z,100.00
2024-01-22T05:06:14.975Z,100.00
2024-01-22T05:11:16.843Z,100.00
2024-01-22T05:16:19.454Z,100.00
2024-01-22T05:21:23.149Z,100.00
2024-01-22T05:26:25.395Z,100.00
2024-01-22T05:31:27.105Z,100.00
2024-01-22T05:36:29.429Z,100.00
2024-01-22T05:41:31.185Z,100.00
2024-01-22T05:46:32.985Z,100.00
2024-01-22T05:51:34.696Z,100.00
2024-01-22T05:56:36.462Z,100.00
2024-01-22T06:01:38.307Z,100.00
2024-01-22T06:06:40.404Z,100.00
2024-01-22T06:11:42.403Z,100.00
2024-01-22T06:16:47.320Z,100.00
2024-01-22T06:21:49.182Z,100.00
2024-01-22T06:26:51.541Z,100.00
2024-01-22T06:31:53.263Z,100.00
2024-01-22T06:36:54.968Z,100.00
2024-01-22T06:41:57.020Z,100.00
2024-01-22T06:46:58.828Z,100.00
2024-01-22T06:52:01.635Z,100.00
2024-01-22T06:57:03.574Z,100.00
2024-01-22T07:02:05.445Z,100.00
2024-01-22T07:07:07.189Z,100.00
2024-01-22T07:12:09.199Z,100.00
2024-01-22T07:17:10.909Z,100.00
2024-01-22T07:22:12.942Z,100.00
2024-01-22T07:27:14.792Z,100.00
2024-01-22T07:32:16.619Z,100.00
2024-01-22T07:37:18.451Z,100.00
2024-01-22T07:42:20.299Z,100.00
2024-01-22T07:47:23.355Z,100.00
2024-01-22T07:52:25.291Z,100.00
2024-01-22T07:57:27.210Z,100.00
2024-01-22T08:02:29.118Z,100.00
2024-01-22T08:07:31.117Z,100.00
2024-01-22T08:12:32.927Z,100.00
2024-01-22T08:17:37.061Z,100.00
2024-01-22T08:22:39.695Z,100.00
2024-01-22T08:27:41.968Z,100.00
2024-01-22T08:32:44.031Z,100.00
2024-01-22T08:37:56.092Z,100.00
2024-01-22T08:42:58.589Z,100.00
2024-01-22T08:48:00.457Z,100.00
2024-01-22T08:53:02.486Z,100.00
2024-01-22T08:58:06.828Z,100.00
2024-01-22T09:03:08.836Z,100.00
2024-01-22T09:08:10.643Z,100.00
2024-01-22T09:13:12.394Z,100.00
2024-01-22T09:18:15.328Z,100.00
2024-01-22T09:23:17.291Z,100.00
2024-01-22T09:28:21.988Z,100.00
2024-01-22T09:33:23.994Z,100.00
2024-01-22T09:38:25.884Z,100.00
2024-01-22T09:43:27.830Z,100.00
2024-01-22T09:48:30.889Z,100.00
2024-01-22T09:53:38.385Z,100.00
2024-01-22T09:58:46.763Z,100.00
2024-01-22T10:03:49.217Z,100.00
2024-01-22T10:08:58.726Z,100.00
2024-01-22T10:14:00.962Z,100.00
2024-01-22T10:19:06.672Z,100.00
2024-01-22T10:24:10.170Z,100.00
2024-01-22T10:29:19.009Z,100.00
2024-01-22T10:34:21.249Z,100.00
2024-01-22T10:39:23.590Z,100.00
2024-01-22T10:44:25.488Z,100.00
2024-01-22T10:49:29.091Z,100.00
2024-01-22T10:54:32.157Z,100.00
2024-01-22T10:59:41.036Z,100.00
2024-01-22T11:04:45.152Z,100.00
2024-01-22T11:09:52.475Z,100.00
2024-01-22T11:14:55.601Z,100.00
2024-01-22T11:20:27.194Z,100.00
2024-01-22T11:25:34.354Z,100.00
2024-01-22T11:30:40.452Z,100.00
2024-01-22T11:35:45.774Z,100.00
2024-01-22T11:40:56.918Z,100.00
2024-01-22T11:46:02.752Z,100.00
2024-01-22T11:51:09.434Z,100.00
2024-01-22T11:56:11.548Z,100.00
2024-01-22T12:01:13.430Z,100.00
2024-01-22T12:06:15.562Z,100.00
2024-01-22T12:11:17.341Z,100.00
2024-01-22T12:16:20.544Z,100.00
2024-01-22T12:21:23.427Z,100.00
2024-01-22T12:26:25.316Z,100.00
2024-01-22T12:31:27.130Z,100.00
2024-01-22T12:36:29.289Z,100.00
2024-01-22T12:41:32.850Z,100.00
2024-01-22T12:46:34.684Z,100.00
2024-01-22T12:51:36.543Z,99.41
2024-01-22T12:56:39.887Z,100.00
2024-01-22T13:01:42.465Z,99.61
2024-01-22T13:06:48.771Z,99.28
2024-01-22T13:11:50.870Z,98.99
2024-01-22T13:16:52.808Z,98.30
2024-01-22T13:21:54.690Z,99.18
2024-01-22T13:26:57.733Z,97.82
2024-01-22T13:31:59.751Z,98.45
2024-01-22T13:37:01.806Z,97.53
2024-01-22T13:42:03.788Z,98.25
2024-01-22T13:47:13.883Z,97.93
2024-01-22T13:52:26.315Z,98.02
2024-01-22T13:57:33.598Z,98.32
2024-01-22T14:02:35.396Z,98.33
2024-01-22T14:07:37.257Z,98.52
2024-01-22T14:12:39.443Z,98.40
2024-01-22T14:17:41.444Z,98.44
2024-01-22T14:22:44.292Z,98.46
2024-01-22T14:27:46.946Z,98.69
2024-01-22T14:32:49.138Z,99.41
2024-01-22T14:37:51.303Z,99.27
2024-01-22T14:42:56.282Z,99.33
2024-01-22T14:47:58.239Z,98.65
2024-01-22T14:53:06.748Z,98.20
2024-01-22T14:58:11.309Z,98.50
2024-01-22T15:03:20.256Z,98.83
2024-01-22T15:08:22.104Z,98.48
2024-01-22T15:13:31.397Z,98.93
2024-01-22T15:18:33.405Z,99.46
2024-01-22T15:23:43.791Z,99.96
2024-01-22T15:28:45.952Z,99.98
2024-01-22T15:33:49.166Z,99.90
2024-01-22T15:38:51.979Z,100.00
2024-01-22T15:43:57.178Z,99.45
2024-01-22T15:48:59.198Z,99.14
2024-01-22T15:54:01.602Z,99.07
2024-01-22T15:59:04.537Z,98.58
2024-01-22T16:04:06.398Z,98.10
2024-01-22T16:09:11.413Z,97.49
2024-01-22T16:14:13.410Z,97.83
2024-01-22T16:19:18.661Z,97.93
2024-01-22T16:24:23.183Z,97.96
2024-01-22T16:29:25.816Z,98.61
2024-01-22T16:34:27.838Z,98.65
2024-01-22T16:39:31.916Z,98.76
2024-01-22T16:44:34.562Z,98.48
2024-01-22T16:49:36.526Z,98.26
2024-01-22T16:54:38.421Z,97.83
2024-01-22T16:59:40.177Z,97.70
2024-01-22T17:04:42.135Z,97.68
2024-01-22T17:09:46.680Z,97.37
2024-01-22T17:14:49.293Z,97.48
2024-01-22T17:19:52.725Z,97.13
2024-01-22T17:24:54.555Z,98.13
2024-01-22T17:29:59.365Z,98.80
2024-01-22T17:35:01.322Z,100.00
2024-01-22T17:40:03.940Z,100.00
2024-01-22T17:45:09.224Z,100.00
2024-01-22T17:50:12.739Z,100.00
2024-01-22T17:55:14.551Z,100.00
2024-01-22T18:00:17.183Z,100.00
2024-01-22T18:05:19.015Z,100.00
2024-01-22T18:10:20.761Z,99.49
2024-01-22T18:15:22.675Z,98.34
2024-01-22T18:20:24.508Z,97.47
2024-01-22T18:25:26.258Z,96.43
2024-01-22T18:30:28.298Z,96.27
2024-01-22T18:35:33.305Z,96.18
2024-01-22T18:40:35.087Z,96.27
2024-01-22T18:45:37.025Z,96.18
2024-01-22T18:50:42.033Z,95.98
2024-01-22T18:55:43.817Z,97.02
2024-01-22T19:00:45.905Z,97.64
2024-01-22T19:05:48.534Z,97.98
2024-01-22T19:10:50.384Z,98.38
2024-01-22T19:15:52.286Z,98.64
2024-01-22T19:20:54.118Z,98.38
2024-01-22T19:25:55.997Z,97.90
2024-01-22T19:30:59.111Z,97.67
2024-01-22T19:36:00.971Z,97.56
2024-01-22T19:41:06.234Z,97.79
2024-01-22T19:46:08.040Z,97.26
2024-01-22T19:51:09.848Z,97.43
2024-01-22T19:56:11.602Z,93.60
2024-01-22T20:01:13.561Z,91.08
2024-01-22T20:06:15.663Z,87.32
2024-01-22T20:11:17.505Z,82.18
2024-01-22T20:16:19.318Z,80.75
2024-01-22T20:21:23.658Z,80.55
2024-01-22T20:26:25.662Z,82.06
2024-01-22T20:31:27.692Z,84.35
2024-01-22T20:36:37.812Z,88.43
2024-01-22T20:41:43.943Z,91.43
2024-01-22T20:46:45.882Z,93.14
2024-01-22T20:51:48.738Z,94.33
2024-01-22T20:56:53.289Z,94.72
2024-01-22T21:01:55.270Z,95.08
2024-01-22T21:06:57.084Z,95.73
2024-01-22T21:12:10.274Z,96.87
2024-01-22T21:17:16.525Z,98.09
2024-01-22T21:22:21.400Z,99.06
2024-01-22T21:27:23.355Z,99.42
2024-01-22T21:32:25.099Z,98.92
2024-01-22T21:37:26.939Z,97.90
2024-01-22T21:42:29.079Z,97.75
2024-01-22T21:47:30.985Z,97.48
2024-01-22T21:52:32.747Z,97.54
2024-01-22T21:57:36.252Z,96.76
2024-01-22T22:02:40.149Z,94.83
2024-01-22T22:07:48.570Z,93.26
2024-01-22T22:12:51.297Z,91.02
2024-01-22T22:17:53.248Z,88.22
2024-01-22T22:22:56.468Z,86.74
2024-01-22T22:27:58.499Z,85.68
2024-01-22T22:33:00.853Z,86.39
2024-01-22T22:38:03.061Z,86.59
2024-01-22T22:43:04.917Z,88.30
2024-01-22T22:48:07.101Z,89.95
2024-01-22T22:53:09.043Z,91.08
2024-01-22T22:58:11.162Z,91.90
2024-01-22T23:03:13.226Z,92.38
2024-01-22T23:08:15.033Z,92.29
2024-01-22T23:13:17.544Z,92.02
2024-01-22T23:18:19.786Z,92.37
2024-01-22T23:23:21.534Z,92.64
2024-01-22T23:28:23.337Z,91.29
2024-01-22T23:33:26.364Z,89.88
2024-01-22T23:38:28.374Z,89.50
2024-01-22T23:43:30.174Z,89.31
2024-01-22T23:48:52.262Z,87.71
2024-01-22T23:53:54.150Z,87.07
2024-01-22T23:58:56.196Z,85.77
